Skip Navigation Links Skip Navigation Links

Current Weather

Waukegan Regional, Waukegan, Ill.

For information only: do not use for flight planning or navigation.
Latest weather
Observation time Saturday, August 24, 2019 11:55 PM CDT
Local time Sunday, August 25, 2019 12:46 AM CDT
Flight conditions Visual Meteorological Conditions
Winds
Wind direction East (80°)
Wind speed 8 mph
Visibility 10 mi.
Sky condition
Ceiling 4,500 ft. broken clouds
Cloud layer few clouds 3,600 ft.
Cloud layer broken clouds 4,500 ft.
Temperature 68°F
Dewpoint 58°F
Altimeter 30.19 in.Hg
Derived measurements
Relative humidity 70%
Density altitude 1234 ft.
Sea-level pressure 30.16 in.Hg
Remarks
Fully automated report.
System requires maintenance.
Automated weather observing station with precipitation discriminator.
METAR KUGN 250455Z AUTO 08007KT 10SM FEW036 BKN045 20/14 A3019 RMK AO2 SLP215 T02000144 $

Settings

Location code

InnerDrive.Weather 4.0.6770.0 Release CLR 4.0.30319.42000
Copyright ©2018 Inner Drive Technology. All rights reserved. Portions Copyright ©1986-2018 David Braverman.

Find weather

Site navigation


Skip Navigation Links

Place info

Page info

PayPal - The safer, easier way to pay online!

Return home.

Copyright ©2019 Inner Drive Technology. Purveyors of fine, hand-crafted computer software. Page printed 2019-08-25T05:46:39 UTC.